createdAt,value
2017-10-20T00:00:49.055Z,10.65
2017-10-20T00:03:16.624Z,10.64
2017-10-20T00:05:44.180Z,10.75
2017-10-20T00:08:11.748Z,10.70
2017-10-20T00:10:39.290Z,10.62
2017-10-20T00:13:06.823Z,10.58
2017-10-20T00:15:34.360Z,10.69
2017-10-20T00:18:01.893Z,10.63
2017-10-20T00:20:29.544Z,10.57
2017-10-20T00:22:57.929Z,10.53
2017-10-20T00:25:25.780Z,10.63
2017-10-20T00:27:53.360Z,10.55
2017-10-20T00:30:20.901Z,10.48
2017-10-20T00:32:48.476Z,10.55
2017-10-20T00:35:16.136Z,10.45
2017-10-20T00:37:43.669Z,10.46
2017-10-20T00:40:11.211Z,10.48
2017-10-20T00:42:38.752Z,10.46
2017-10-20T00:45:06.284Z,10.40
2017-10-20T00:47:33.827Z,10.41
2017-10-20T00:50:01.371Z,10.34
2017-10-20T00:52:28.958Z,10.37
2017-10-20T00:54:56.522Z,10.28
2017-10-20T00:57:24.060Z,10.22
2017-10-20T00:59:51.599Z,10.23
2017-10-20T01:02:19.137Z,10.22
2017-10-20T01:04:46.773Z,10.28
2017-10-20T01:07:14.306Z,10.24
2017-10-20T01:09:41.845Z,10.26
2017-10-20T01:12:09.389Z,10.16
2017-10-20T01:14:36.933Z,10.14
2017-10-20T01:17:04.472Z,10.13
2017-10-20T01:19:32.375Z,10.09
2017-10-20T01:21:59.926Z,10.14
2017-10-20T01:24:27.455Z,10.08
2017-10-20T01:26:55.026Z,10.13
2017-10-20T01:29:22.734Z,10.10
2017-10-20T01:31:50.267Z,10.13
2017-10-20T01:34:17.893Z,10.14
2017-10-20T01:36:45.476Z,10.23
2017-10-20T01:39:13.020Z,10.12
2017-10-20T01:41:41.335Z,10.03
2017-10-20T01:44:10.056Z,9.97
2017-10-20T01:46:37.585Z,9.91
2017-10-20T01:49:05.198Z,9.90
2017-10-20T01:51:32.745Z,9.84
2017-10-20T01:54:00.303Z,9.83
2017-10-20T01:56:27.836Z,9.88
2017-10-20T01:58:55.368Z,9.89
2017-10-20T02:01:22.948Z,9.89
2017-10-20T02:03:50.488Z,9.85
2017-10-20T02:06:18.109Z,9.78
2017-10-20T02:08:45.644Z,9.75
2017-10-20T02:11:13.239Z,9.76
2017-10-20T02:13:41.461Z,9.80
2017-10-20T02:16:09.088Z,9.75
2017-10-20T02:18:37.464Z,9.73
2017-10-20T02:21:05.813Z,9.68
2017-10-20T02:23:34.112Z,9.60
2017-10-20T02:26:02.453Z,9.58
2017-10-20T02:28:30.022Z,9.69
2017-10-20T02:30:57.565Z,9.68
2017-10-20T02:33:25.186Z,9.71
2017-10-20T02:35:52.730Z,9.73
2017-10-20T02:38:20.309Z,9.73
2017-10-20T02:40:47.864Z,9.73
2017-10-20T02:43:15.389Z,9.62
2017-10-20T02:45:42.924Z,9.60
2017-10-20T02:48:10.541Z,9.48
2017-10-20T02:50:38.069Z,9.50
2017-10-20T02:53:05.601Z,9.50
2017-10-20T02:55:33.131Z,9.47
2017-10-20T02:58:00.693Z,9.49
2017-10-20T03:00:28.246Z,9.49
2017-10-20T03:02:55.808Z,9.49
2017-10-20T03:05:23.363Z,9.54
2017-10-20T03:07:50.896Z,9.68
2017-10-20T03:10:20.544Z,9.52
2017-10-20T03:12:48.092Z,9.45
2017-10-20T03:15:15.620Z,9.36
2017-10-20T03:17:43.158Z,9.40
2017-10-20T03:20:10.704Z,9.35
2017-10-20T03:22:38.238Z,9.44
2017-10-20T03:25:05.788Z,9.39
2017-10-20T03:27:33.323Z,9.48
2017-10-20T03:30:01.014Z,9.40
2017-10-20T03:32:28.547Z,9.34
2017-10-20T03:34:56.081Z,9.29
2017-10-20T03:37:23.611Z,9.22
2017-10-20T03:39:51.151Z,9.25
2017-10-20T03:42:18.693Z,9.14
2017-10-20T03:44:46.233Z,9.19
2017-10-20T03:47:13.773Z,9.17
2017-10-20T03:49:41.307Z,9.12
2017-10-20T03:52:08.852Z,9.20
2017-10-20T03:54:36.915Z,9.28
2017-10-20T03:57:04.481Z,9.17
2017-10-20T03:59:32.016Z,9.26
2017-10-20T04:02:00.519Z,9.28
2017-10-20T04:04:28.059Z,9.21
2017-10-20T04:06:55.648Z,9.16
2017-10-20T04:09:23.183Z,9.17
2017-10-20T04:11:50.711Z,9.17
2017-10-20T04:14:18.251Z,9.14
2017-10-20T04:16:45.790Z,9.08
2017-10-20T04:19:13.327Z,9.16
2017-10-20T04:21:40.912Z,9.22
2017-10-20T04:24:08.467Z,9.18
2017-10-20T04:26:36.007Z,9.26
2017-10-20T04:29:03.538Z,9.22
2017-10-20T04:31:32.089Z,9.22
2017-10-20T04:33:59.631Z,9.31
2017-10-20T04:36:27.168Z,9.17
2017-10-20T04:38:54.701Z,9.19
2017-10-20T04:41:22.425Z,9.14
2017-10-20T04:43:49.991Z,9.10
2017-10-20T04:46:18.263Z,9.02
2017-10-20T04:48:45.796Z,9.16
2017-10-20T04:51:13.347Z,9.12
2017-10-20T04:53:40.880Z,9.09
2017-10-20T04:56:08.411Z,9.13
2017-10-20T04:58:35.953Z,9.25
2017-10-20T05:01:03.598Z,9.20
2017-10-20T05:03:31.200Z,9.13
2017-10-20T05:05:58.760Z,9.06
2017-10-20T05:08:26.300Z,9.01
2017-10-20T05:10:53.833Z,9.03
2017-10-20T05:13:21.409Z,9.02
2017-10-20T05:15:48.941Z,9.02
2017-10-20T05:18:16.472Z,9.08
2017-10-20T05:20:44.001Z,9.04
2017-10-20T05:23:12.796Z,9.14
2017-10-20T05:25:40.324Z,9.11
2017-10-20T05:28:07.858Z,9.20
2017-10-20T05:30:35.397Z,9.23
2017-10-20T05:33:02.932Z,9.29
2017-10-20T05:35:30.472Z,9.28
2017-10-20T05:37:58.012Z,9.32
2017-10-20T05:40:25.624Z,9.37
2017-10-20T05:42:53.167Z,9.32
2017-10-20T05:45:20.695Z,9.41
2017-10-20T05:47:48.300Z,9.42
2017-10-20T05:50:19.227Z,9.47
2017-10-20T05:52:46.756Z,9.53
2017-10-20T05:55:14.289Z,9.50
2017-10-20T05:57:41.824Z,9.40
2017-10-20T06:00:09.383Z,9.47
2017-10-20T06:02:37.732Z,9.59
2017-10-20T06:05:05.266Z,9.57
2017-10-20T06:07:32.809Z,9.52
2017-10-20T06:10:00.352Z,9.62
2017-10-20T06:12:27.883Z,9.48
2017-10-20T06:14:55.457Z,9.45
2017-10-20T06:17:35.001Z,9.40
2017-10-20T06:20:02.540Z,9.47
2017-10-20T06:22:30.116Z,9.50
2017-10-20T06:24:57.656Z,9.53
2017-10-20T06:27:25.189Z,9.46
2017-10-20T06:29:53.624Z,9.55
2017-10-20T06:32:21.287Z,9.40
2017-10-20T06:34:48.913Z,9.49
2017-10-20T06:37:16.444Z,9.59
2017-10-20T06:39:44.788Z,9.62
2017-10-20T06:42:12.313Z,9.58
2017-10-20T06:44:40.700Z,9.55
2017-10-20T06:47:08.233Z,9.62
2017-10-20T06:49:35.772Z,9.61
2017-10-20T06:52:03.337Z,9.72
2017-10-20T06:54:30.871Z,9.80
2017-10-20T06:56:58.400Z,9.74
2017-10-20T06:59:25.938Z,9.70
2017-10-20T07:01:53.668Z,9.75
2017-10-20T07:04:21.309Z,9.84
2017-10-20T07:06:48.872Z,9.94
2017-10-20T07:09:16.409Z,10.01
2017-10-20T07:11:44.196Z,9.94
2017-10-20T07:14:11.794Z,10.09
2017-10-20T07:16:39.371Z,10.09
2017-10-20T07:22:10.898Z,10.23
2017-10-20T07:24:38.556Z,10.26
2017-10-20T07:27:06.420Z,10.32
2017-10-20T07:29:35.813Z,10.39
2017-10-20T07:32:03.433Z,10.39
2017-10-20T07:34:31.037Z,10.41
2017-10-20T07:36:58.573Z,10.44
2017-10-20T07:39:26.264Z,10.51
2017-10-20T07:41:53.799Z,10.61
2017-10-20T07:44:21.337Z,10.77
2017-10-20T07:46:50.170Z,10.72
2017-10-20T07:49:18.712Z,10.81
2017-10-20T07:51:46.288Z,10.90
2017-10-20T07:54:14.477Z,11.06
2017-10-20T07:56:42.023Z,11.13
2017-10-20T07:59:09.607Z,11.21
2017-10-20T08:01:37.147Z,11.28
2017-10-20T08:04:04.741Z,11.32
2017-10-20T08:06:32.286Z,11.52
2017-10-20T08:08:59.824Z,11.59
2017-10-20T08:11:28.140Z,11.61
2017-10-20T08:13:55.812Z,11.64
2017-10-20T08:16:24.418Z,11.79
2017-10-20T08:18:52.051Z,11.92
2017-10-20T08:21:19.593Z,11.96
2017-10-20T08:23:47.175Z,11.93
2017-10-20T08:26:14.710Z,11.92
2017-10-20T08:28:42.260Z,11.99
2017-10-20T08:31:09.796Z,12.04
2017-10-20T08:33:37.380Z,12.11
2017-10-20T08:36:04.972Z,12.29
2017-10-20T08:38:33.421Z,12.37
2017-10-20T08:41:02.054Z,12.53
2017-10-20T08:43:29.588Z,12.57
2017-10-20T08:45:57.157Z,12.54
2017-10-20T08:48:24.709Z,12.58
2017-10-20T08:50:52.285Z,12.80
2017-10-20T08:53:19.872Z,12.88
2017-10-20T08:55:47.409Z,12.91
2017-10-20T08:58:16.008Z,13.06
2017-10-20T09:00:43.547Z,13.14
2017-10-20T09:03:11.087Z,13.15
2017-10-20T09:05:38.633Z,13.22
2017-10-20T09:08:06.233Z,13.35
2017-10-20T09:10:34.698Z,13.43
2017-10-20T09:13:02.237Z,13.51
2017-10-20T09:15:29.800Z,13.61
2017-10-20T09:17:57.338Z,13.76
2017-10-20T09:20:24.887Z,13.81
2017-10-20T09:22:52.429Z,13.94
2017-10-20T09:25:20.081Z,13.97
2017-10-20T09:27:47.623Z,14.18
2017-10-20T09:30:19.334Z,14.20
2017-10-20T09:32:46.957Z,14.38
2017-10-20T09:35:14.593Z,14.44
2017-10-20T09:37:42.188Z,14.60
2017-10-20T09:40:10.593Z,14.72
2017-10-20T09:42:38.224Z,14.88
2017-10-20T09:45:06.955Z,14.91
2017-10-20T09:47:34.545Z,15.02
2017-10-20T09:50:02.137Z,15.10
2017-10-20T09:52:29.670Z,15.26
2017-10-20T09:54:57.970Z,15.28
2017-10-20T09:57:26.330Z,15.67
2017-10-20T09:59:53.870Z,15.76
2017-10-20T10:02:21.461Z,15.96
2017-10-20T10:04:49.016Z,15.98
2017-10-20T10:07:16.553Z,16.26
2017-10-20T10:09:44.140Z,16.34
2017-10-20T10:12:11.682Z,16.47
2017-10-20T10:14:39.273Z,16.72
2017-10-20T10:17:06.822Z,16.77
2017-10-20T10:19:34.388Z,16.68
2017-10-20T10:22:01.923Z,16.64
2017-10-20T10:24:30.338Z,16.73
2017-10-20T10:26:57.909Z,16.84
2017-10-20T10:29:26.064Z,16.92
2017-10-20T10:31:54.905Z,17.02
2017-10-20T10:34:22.518Z,17.11
2017-10-20T10:36:50.104Z,17.23
2017-10-20T10:39:17.649Z,17.41
2017-10-20T10:41:46.083Z,17.56
2017-10-20T10:44:13.680Z,17.48
2017-10-20T10:46:42.145Z,17.77
2017-10-20T10:49:09.719Z,17.60
2017-10-20T10:51:38.060Z,17.56
2017-10-20T10:54:05.635Z,17.46
2017-10-20T10:56:33.901Z,17.58
2017-10-20T10:59:01.440Z,17.75
2017-10-20T11:01:29.728Z,17.96
2017-10-20T11:03:57.280Z,17.85
2017-10-20T11:06:36.695Z,17.80
2017-10-20T11:09:16.461Z,18.01
2017-10-20T11:11:55.965Z,18.00
2017-10-20T11:14:23.503Z,18.10
2017-10-20T11:16:51.937Z,17.94
2017-10-20T11:19:19.468Z,18.09
2017-10-20T11:21:48.875Z,17.79
2017-10-20T11:24:16.560Z,17.88
2017-10-20T11:26:44.096Z,17.74
2017-10-20T11:29:11.656Z,17.62
2017-10-20T11:31:40.041Z,17.75
2017-10-20T11:34:07.609Z,17.77
2017-10-20T11:36:35.979Z,17.60
2017-10-20T11:39:03.518Z,17.54
2017-10-20T11:41:31.931Z,17.66
2017-10-20T11:43:59.576Z,17.44
2017-10-20T11:46:27.900Z,17.58
2017-10-20T11:48:55.517Z,17.78
2017-10-20T11:51:23.758Z,17.82
2017-10-20T11:53:51.306Z,18.02
2017-10-20T11:56:19.377Z,18.11
2017-10-20T11:58:46.921Z,18.07
2017-10-20T12:01:14.463Z,18.05
2017-10-20T12:03:42.007Z,18.11
2017-10-20T12:06:09.568Z,18.03
2017-10-20T12:08:37.129Z,17.89
2017-10-20T12:11:04.664Z,17.85
2017-10-20T12:13:32.197Z,17.92
2017-10-20T12:15:59.740Z,17.75
2017-10-20T12:18:27.281Z,17.77
2017-10-20T12:20:54.823Z,17.75
2017-10-20T12:23:22.374Z,17.73
2017-10-20T12:25:49.964Z,17.81
2017-10-20T12:28:17.843Z,17.84
2017-10-20T12:30:46.203Z,17.89
2017-10-20T12:33:13.758Z,17.89
2017-10-20T12:35:41.299Z,17.69
2017-10-20T12:38:08.880Z,17.69
2017-10-20T12:40:37.257Z,17.58
2017-10-20T12:43:05.780Z,17.43
2017-10-20T12:45:33.333Z,17.29
2017-10-20T12:48:00.868Z,17.13
2017-10-20T12:50:28.402Z,17.15
2017-10-20T12:52:55.938Z,16.85
2017-10-20T12:55:23.536Z,16.91
2017-10-20T12:57:51.713Z,16.84
2017-10-20T13:00:20.735Z,16.77
2017-10-20T13:02:48.276Z,16.70
2017-10-20T13:05:15.820Z,16.68
2017-10-20T13:07:43.366Z,16.68
2017-10-20T13:10:10.902Z,16.69
2017-10-20T13:12:38.512Z,16.69
2017-10-20T13:15:06.051Z,16.62
2017-10-20T13:17:33.665Z,16.62
2017-10-20T13:20:01.300Z,16.56
2017-10-20T13:22:28.864Z,16.52
2017-10-20T13:24:56.440Z,16.51
2017-10-20T13:27:24.078Z,16.51
2017-10-20T13:29:51.604Z,16.60
2017-10-20T13:32:20.269Z,16.60
2017-10-20T13:34:48.648Z,16.65
2017-10-20T13:37:17.289Z,16.56
2017-10-20T13:39:44.853Z,16.58
2017-10-20T13:42:12.408Z,16.47
2017-10-20T13:44:39.989Z,16.44
2017-10-20T13:47:08.423Z,16.44
2017-10-20T13:49:36.967Z,16.40
2017-10-20T13:52:05.517Z,16.42
2017-10-20T13:54:33.828Z,16.46
2017-10-20T13:57:02.183Z,16.46
2017-10-20T13:59:30.535Z,16.43
2017-10-20T14:01:58.811Z,16.50
2017-10-20T14:04:27.245Z,16.51
2017-10-20T14:06:55.656Z,16.52
2017-10-20T14:09:24.108Z,16.51
2017-10-20T14:11:52.420Z,16.57
2017-10-20T14:14:19.953Z,16.43
2017-10-20T14:16:48.392Z,16.39
2017-10-20T14:19:15.925Z,16.36
2017-10-20T14:21:44.368Z,16.20
2017-10-20T14:24:11.942Z,16.30
2017-10-20T14:26:40.384Z,16.29
2017-10-20T14:29:08.036Z,16.39
2017-10-20T14:31:36.360Z,16.32
2017-10-20T14:34:03.928Z,16.19
2017-10-20T14:36:31.541Z,16.28
2017-10-20T14:38:59.801Z,16.38
2017-10-20T14:41:28.067Z,16.17
2017-10-20T14:43:55.658Z,16.34
2017-10-20T14:46:24.036Z,16.50
2017-10-20T14:48:51.596Z,16.43
2017-10-20T14:51:20.101Z,16.41
2017-10-20T14:53:47.636Z,16.17
2017-10-20T14:56:16.032Z,16.09
2017-10-20T14:58:43.572Z,16.07
2017-10-20T15:01:11.984Z,15.81
2017-10-20T15:03:40.332Z,15.75
2017-10-20T15:06:08.687Z,15.62
2017-10-20T15:08:42.064Z,15.54
2017-10-20T15:11:09.642Z,15.83
2017-10-20T15:13:38.089Z,15.71
2017-10-20T15:16:05.631Z,15.71
2017-10-20T15:18:33.166Z,15.66
2017-10-20T15:21:02.552Z,15.60
2017-10-20T15:23:30.780Z,15.60
2017-10-20T15:25:58.312Z,15.48
2017-10-20T15:28:25.852Z,15.40
2017-10-20T15:30:53.444Z,15.42
2017-10-20T15:33:20.997Z,15.32
2017-10-20T15:35:49.646Z,15.23
2017-10-20T15:38:18.140Z,15.18
2017-10-20T15:40:45.833Z,15.19
2017-10-20T15:43:13.369Z,15.12
2017-10-20T15:45:40.900Z,15.07
2017-10-20T15:48:08.445Z,15.10
2017-10-20T15:50:36.792Z,15.09
2017-10-20T15:53:04.326Z,15.03
2017-10-20T15:55:32.764Z,14.97
2017-10-20T15:58:00.833Z,14.94
2017-10-20T16:00:29.300Z,14.98
2017-10-20T16:02:56.835Z,14.98
2017-10-20T16:05:24.512Z,14.83
2017-10-20T16:07:52.949Z,14.78
2017-10-20T16:10:20.674Z,14.71
2017-10-20T16:12:48.211Z,14.72
2017-10-20T16:15:15.746Z,14.65
2017-10-20T16:17:43.337Z,14.63
2017-10-20T16:20:10.905Z,14.57
2017-10-20T16:22:38.480Z,14.52
2017-10-20T16:25:06.029Z,14.55
2017-10-20T16:27:33.573Z,14.52
2017-10-20T16:30:01.722Z,14.46
2017-10-20T16:32:29.311Z,14.82
2017-10-20T16:34:56.862Z,14.65
2017-10-20T16:37:26.015Z,14.61
2017-10-20T16:39:54.158Z,14.64
2017-10-20T16:42:22.360Z,14.58
2017-10-20T16:44:49.893Z,14.51
2017-10-20T16:47:17.432Z,14.51
2017-10-20T16:49:44.971Z,14.43
2017-10-20T16:52:12.533Z,14.36
2017-10-20T16:54:40.073Z,14.40
2017-10-20T16:57:07.617Z,14.36
2017-10-20T16:59:35.240Z,14.28
2017-10-20T17:02:03.697Z,14.20
2017-10-20T17:04:32.096Z,14.13
2017-10-20T17:06:59.628Z,14.06
2017-10-20T17:09:27.736Z,14.02
2017-10-20T17:11:55.300Z,14.02
2017-10-20T17:14:22.848Z,14.04
2017-10-20T17:16:50.383Z,14.04
2017-10-20T17:19:17.928Z,14.06
2017-10-20T17:21:45.516Z,14.13
2017-10-20T17:24:13.048Z,14.13
2017-10-20T17:26:40.621Z,14.12
2017-10-20T17:29:08.160Z,14.13
2017-10-20T17:31:35.705Z,14.13
2017-10-20T17:34:03.256Z,14.12
2017-10-20T17:36:30.795Z,14.12
2017-10-20T17:38:58.329Z,14.13
2017-10-20T17:41:25.921Z,14.13
2017-10-20T17:43:56.151Z,14.16
2017-10-20T17:46:23.709Z,14.21
2017-10-20T17:48:53.458Z,14.15
2017-10-20T17:51:20.996Z,14.19
2017-10-20T17:53:49.520Z,14.13
2017-10-20T17:56:19.176Z,14.27
2017-10-20T17:58:47.499Z,14.33
2017-10-20T18:01:15.940Z,14.22
2017-10-20T18:03:46.383Z,14.22
2017-10-20T18:06:13.950Z,14.25
2017-10-20T18:08:41.573Z,14.18
2017-10-20T18:11:09.910Z,14.23
2017-10-20T18:13:37.517Z,14.29
2017-10-20T18:16:05.269Z,14.33
2017-10-20T18:18:32.827Z,14.30
2017-10-20T18:21:00.371Z,14.23
2017-10-20T18:23:27.915Z,14.17
2017-10-20T18:25:55.522Z,14.18
2017-10-20T18:28:23.060Z,14.18
2017-10-20T18:30:51.397Z,14.23
2017-10-20T18:33:18.945Z,14.21
2017-10-20T18:35:46.485Z,14.20
2017-10-20T18:38:15.229Z,14.20
2017-10-20T18:40:42.769Z,14.31
2017-10-20T18:43:10.397Z,14.38
2017-10-20T18:45:37.940Z,14.39
2017-10-20T18:48:06.305Z,14.40
2017-10-20T18:50:34.629Z,14.38
2017-10-20T18:53:02.167Z,14.32
2017-10-20T18:55:29.704Z,14.43
2017-10-20T18:57:57.248Z,14.58
2017-10-20T19:00:24.825Z,14.53
2017-10-20T19:02:53.180Z,14.57
2017-10-20T19:05:20.711Z,14.36
2017-10-20T19:07:48.248Z,14.32
2017-10-20T19:10:16.241Z,14.44
2017-10-20T19:12:44.804Z,14.35
2017-10-20T19:15:12.380Z,14.21
2017-10-20T19:17:39.921Z,14.19
2017-10-20T19:20:07.460Z,14.08
2017-10-20T19:22:35.049Z,14.06
2017-10-20T19:25:02.617Z,14.20
2017-10-20T19:27:30.188Z,14.17
2017-10-20T19:29:57.731Z,14.21
2017-10-20T19:32:25.273Z,14.25
2017-10-20T19:34:52.866Z,14.31
2017-10-20T19:37:20.409Z,14.38
2017-10-20T19:39:47.939Z,14.35
2017-10-20T19:42:16.413Z,14.27
2017-10-20T19:44:44.017Z,14.25
2017-10-20T19:47:11.582Z,14.19
2017-10-20T19:49:51.874Z,14.14
2017-10-20T19:52:20.544Z,14.35
2017-10-20T19:54:48.156Z,14.31
2017-10-20T19:57:15.741Z,14.24
2017-10-20T19:59:44.173Z,14.23
2017-10-20T20:02:12.516Z,14.17
2017-10-20T20:04:40.273Z,14.11
2017-10-20T20:07:08.488Z,14.07
2017-10-20T20:09:37.087Z,14.01
2017-10-20T20:12:05.216Z,13.99
2017-10-20T20:14:33.921Z,14.11
2017-10-20T20:17:01.566Z,14.01
2017-10-20T20:19:30.244Z,13.93
2017-10-20T20:21:58.824Z,13.89
2017-10-20T20:24:27.409Z,13.83
2017-10-20T20:26:55.041Z,13.83
2017-10-20T20:29:23.862Z,13.78
2017-10-20T20:32:07.072Z,13.87
2017-10-20T20:34:34.656Z,13.84
2017-10-20T20:37:03.027Z,13.82
2017-10-20T20:39:30.886Z,13.83
2017-10-20T20:41:58.444Z,13.86
2017-10-20T20:44:25.984Z,13.96
2017-10-20T20:46:54.812Z,14.08
2017-10-20T20:49:24.015Z,14.05
2017-10-20T20:51:52.068Z,14.04
2017-10-20T20:54:19.848Z,14.02
2017-10-20T20:56:47.542Z,13.97
2017-10-20T20:59:15.076Z,14.00
2017-10-20T21:01:42.685Z,14.00
2017-10-20T21:04:10.958Z,13.86
2017-10-20T21:06:38.502Z,13.88
2017-10-20T21:09:06.129Z,13.85
2017-10-20T21:11:33.677Z,13.80
2017-10-20T21:14:02.574Z,13.80
2017-10-20T21:16:30.342Z,13.66
2017-10-20T21:18:58.746Z,13.58
2017-10-20T21:21:26.584Z,13.53
2017-10-20T21:23:55.384Z,13.37
2017-10-20T21:26:24.882Z,13.22
2017-10-20T21:28:52.872Z,13.16
2017-10-20T21:31:21.212Z,13.15
2017-10-20T21:33:48.744Z,13.04
2017-10-20T21:36:16.285Z,12.93
2017-10-20T21:38:45.860Z,12.84
2017-10-20T21:41:13.437Z,12.70
2017-10-20T21:43:42.957Z,12.56
2017-10-20T21:46:11.201Z,12.48
2017-10-20T21:48:42.641Z,12.40
2017-10-20T21:51:14.152Z,12.39
2017-10-20T21:53:45.413Z,12.27
2017-10-20T21:56:17.107Z,12.29
2017-10-20T21:58:45.004Z,12.28
2017-10-20T22:01:16.080Z,12.32
2017-10-20T22:06:19.255Z,12.52
2017-10-20T22:08:47.925Z,12.54
2017-10-20T22:11:15.843Z,12.55
2017-10-20T22:13:43.622Z,12.55
2017-10-20T22:16:11.432Z,12.58
2017-10-20T22:18:39.154Z,12.54
2017-10-20T22:21:09.271Z,12.63
2017-10-20T22:23:37.386Z,12.63
2017-10-20T22:26:05.253Z,12.66
2017-10-20T22:28:33.635Z,12.63
2017-10-20T22:31:01.953Z,12.64
2017-10-20T22:33:29.868Z,12.58
2017-10-20T22:35:57.744Z,12.49
2017-10-20T22:38:25.511Z,12.52
2017-10-20T22:40:53.254Z,12.50
2017-10-20T22:43:21.362Z,12.47
2017-10-20T22:45:49.377Z,12.44
2017-10-20T22:48:17.183Z,12.33
2017-10-20T22:50:45.263Z,12.31
2017-10-20T22:53:13.119Z,12.33
2017-10-20T22:55:40.797Z,12.45
2017-10-20T22:58:08.371Z,12.49
2017-10-20T23:00:36.011Z,12.41
2017-10-20T23:03:07.702Z,12.34
2017-10-20T23:05:36.144Z,12.31
2017-10-20T23:08:03.747Z,12.35
2017-10-20T23:10:31.328Z,12.35
2017-10-20T23:12:58.932Z,12.38
2017-10-20T23:15:27.284Z,12.39
2017-10-20T23:17:54.829Z,12.32
2017-10-20T23:20:22.376Z,12.22
2017-10-20T23:22:50.830Z,12.11
2017-10-20T23:25:18.475Z,12.05
2017-10-20T23:27:46.017Z,11.98
2017-10-20T23:30:13.596Z,11.99
2017-10-20T23:32:41.140Z,11.93
2017-10-20T23:35:09.440Z,11.98
2017-10-20T23:37:38.017Z,11.97
2017-10-20T23:40:06.357Z,11.87
2017-10-20T23:42:34.781Z,11.84
2017-10-20T23:45:02.321Z,11.79
2017-10-20T23:47:30.004Z,11.75
2017-10-20T23:49:58.224Z,11.66
2017-10-20T23:52:25.808Z,11.63
2017-10-20T23:54:54.286Z,11.54
2017-10-20T23:57:21.829Z,11.53
2017-10-20T23:59:50.361Z,11.39
